sensor_id;sensor_type;location;lat;lon;timestamp;P1;durP1;ratioP1;P2;durP2;ratioP2
18532;SDS011;9396;51.510;11.934;2024-02-04T00:01:43;5.87;;;5.27;;
18532;SDS011;9396;51.510;11.934;2024-02-04T00:04:09;7.27;;;5.23;;
18532;SDS011;9396;51.510;11.934;2024-02-04T00:06:36;6.40;;;4.97;;
18532;SDS011;9396;51.510;11.934;2024-02-04T00:09:02;6.40;;;4.90;;
18532;SDS011;9396;51.510;11.934;2024-02-04T00:11:29;5.50;;;4.93;;
18532;SDS011;9396;51.510;11.934;2024-02-04T00:13:56;5.90;;;4.90;;
18532;SDS011;9396;51.510;11.934;2024-02-04T00:16:23;7.13;;;5.33;;
18532;SDS011;9396;51.510;11.934;2024-02-04T00:18:51;8.57;;;6.43;;
18532;SDS011;9396;51.510;11.934;2024-02-04T00:21:18;7.67;;;6.47;;
18532;SDS011;9396;51.510;11.934;2024-02-04T00:23:44;9.07;;;7.30;;
18532;SDS011;9396;51.510;11.934;2024-02-04T00:26:11;9.37;;;6.67;;
18532;SDS011;9396;51.510;11.934;2024-02-04T00:28:38;9.30;;;6.97;;
18532;SDS011;9396;51.510;11.934;2024-02-04T00:31:08;10.80;;;6.90;;
18532;SDS011;9396;51.510;11.934;2024-02-04T00:33:34;8.20;;;6.20;;
18532;SDS011;9396;51.510;11.934;2024-02-04T00:36:03;8.70;;;6.20;;
18532;SDS011;9396;51.510;11.934;2024-02-04T00:38:29;9.73;;;7.20;;
18532;SDS011;9396;51.510;11.934;2024-02-04T00:40:56;9.07;;;6.60;;
18532;SDS011;9396;51.510;11.934;2024-02-04T00:43:23;11.80;;;6.80;;
18532;SDS011;9396;51.510;11.934;2024-02-04T00:45:49;7.97;;;6.50;;
18532;SDS011;9396;51.510;11.934;2024-02-04T00:48:16;9.77;;;5.77;;
18532;SDS011;9396;51.510;11.934;2024-02-04T00:50:43;6.50;;;5.50;;
18532;SDS011;9396;51.510;11.934;2024-02-04T00:53:11;7.07;;;5.30;;
18532;SDS011;9396;51.510;11.934;2024-02-04T00:55:37;6.63;;;5.17;;
18532;SDS011;9396;51.510;11.934;2024-02-04T00:58:04;9.20;;;5.03;;
18532;SDS011;9396;51.510;11.934;2024-02-04T01:00:30;8.67;;;5.43;;
18532;SDS011;9396;51.510;11.934;2024-02-04T01:02:57;10.17;;;5.77;;
18532;SDS011;9396;51.510;11.934;2024-02-04T01:05:24;7.60;;;5.60;;
18532;SDS011;9396;51.510;11.934;2024-02-04T01:07:50;9.03;;;5.73;;
18532;SDS011;9396;51.510;11.934;2024-02-04T01:10:18;6.17;;;5.57;;
18532;SDS011;9396;51.510;11.934;2024-02-04T01:12:45;7.63;;;5.57;;
18532;SDS011;9396;51.510;11.934;2024-02-04T01:15:12;7.20;;;5.87;;
18532;SDS011;9396;51.510;11.934;2024-02-04T01:17:38;10.53;;;6.97;;
18532;SDS011;9396;51.510;11.934;2024-02-04T01:20:05;9.90;;;6.23;;
18532;SDS011;9396;51.510;11.934;2024-02-04T01:22:33;8.07;;;6.70;;
18532;SDS011;9396;51.510;11.934;2024-02-04T01:24:59;9.23;;;6.83;;
18532;SDS011;9396;51.510;11.934;2024-02-04T01:27:27;8.30;;;6.53;;
18532;SDS011;9396;51.510;11.934;2024-02-04T01:29:54;10.23;;;6.93;;
18532;SDS011;9396;51.510;11.934;2024-02-04T01:32:21;9.77;;;6.60;;
18532;SDS011;9396;51.510;11.934;2024-02-04T01:34:48;10.63;;;6.67;;
18532;SDS011;9396;51.510;11.934;2024-02-04T01:37:15;8.33;;;6.43;;
18532;SDS011;9396;51.510;11.934;2024-02-04T01:39:41;9.60;;;7.57;;
18532;SDS011;9396;51.510;11.934;2024-02-04T01:42:08;10.63;;;7.20;;
18532;SDS011;9396;51.510;11.934;2024-02-04T01:44:36;9.53;;;7.23;;
18532;SDS011;9396;51.510;11.934;2024-02-04T01:47:03;10.07;;;7.30;;
18532;SDS011;9396;51.510;11.934;2024-02-04T01:49:30;10.77;;;7.27;;
18532;SDS011;9396;51.510;11.934;2024-02-04T01:51:57;15.63;;;8.27;;
18532;SDS011;9396;51.510;11.934;2024-02-04T01:54:24;10.07;;;7.33;;
18532;SDS011;9396;51.510;11.934;2024-02-04T01:56:51;12.20;;;7.67;;
18532;SDS011;9396;51.510;11.934;2024-02-04T01:59:19;10.47;;;7.23;;
18532;SDS011;9396;51.510;11.934;2024-02-04T02:01:54;11.07;;;7.57;;
18532;SDS011;9396;51.510;11.934;2024-02-04T02:04:21;10.40;;;7.13;;
18532;SDS011;9396;51.510;11.934;2024-02-04T02:06:48;11.83;;;7.70;;
18532;SDS011;9396;51.510;11.934;2024-02-04T02:09:14;13.07;;;8.57;;
18532;SDS011;9396;51.510;11.934;2024-02-04T02:11:42;12.40;;;7.87;;
18532;SDS011;9396;51.510;11.934;2024-02-04T02:14:13;9.40;;;7.63;;
18532;SDS011;9396;51.510;11.934;2024-02-04T02:16:42;10.80;;;7.67;;
18532;SDS011;9396;51.510;11.934;2024-02-04T02:19:15;11.53;;;8.50;;
18532;SDS011;9396;51.510;11.934;2024-02-04T02:22:00;13.00;;;8.17;;
18532;SDS011;9396;51.510;11.934;2024-02-04T02:24:34;13.03;;;7.97;;
18532;SDS011;9396;51.510;11.934;2024-02-04T02:27:04;11.37;;;7.83;;
18532;SDS011;9396;51.510;11.934;2024-02-04T02:29:31;10.90;;;7.97;;
18532;SDS011;9396;51.510;11.934;2024-02-04T02:31:58;9.10;;;7.23;;
18532;SDS011;9396;51.510;11.934;2024-02-04T02:34:26;10.70;;;7.87;;
18532;SDS011;9396;51.510;11.934;2024-02-04T02:36:55;13.10;;;7.43;;
18532;SDS011;9396;51.510;11.934;2024-02-04T02:39:27;12.53;;;8.50;;
18532;SDS011;9396;51.510;11.934;2024-02-04T02:41:59;9.47;;;7.57;;
18532;SDS011;9396;51.510;11.934;2024-02-04T02:44:30;13.87;;;8.13;;
18532;SDS011;9396;51.510;11.934;2024-02-04T02:46:58;12.70;;;8.33;;
18532;SDS011;9396;51.510;11.934;2024-02-04T02:49:28;12.03;;;7.90;;
18532;SDS011;9396;51.510;11.934;2024-02-04T02:51:55;11.73;;;8.67;;
18532;SDS011;9396;51.510;11.934;2024-02-04T02:54:22;11.50;;;8.43;;
18532;SDS011;9396;51.510;11.934;2024-02-04T02:56:48;12.30;;;7.73;;
18532;SDS011;9396;51.510;11.934;2024-02-04T02:59:17;11.23;;;8.23;;
18532;SDS011;9396;51.510;11.934;2024-02-04T03:01:43;14.03;;;8.03;;
18532;SDS011;9396;51.510;11.934;2024-02-04T03:04:10;10.77;;;7.53;;
18532;SDS011;9396;51.510;11.934;2024-02-04T03:06:36;10.50;;;7.60;;
18532;SDS011;9396;51.510;11.934;2024-02-04T03:09:03;10.43;;;7.03;;
18532;SDS011;9396;51.510;11.934;2024-02-04T03:11:30;15.53;;;8.40;;
18532;SDS011;9396;51.510;11.934;2024-02-04T03:13:56;13.50;;;7.63;;
18532;SDS011;9396;51.510;11.934;2024-02-04T03:16:24;12.00;;;8.07;;
18532;SDS011;9396;51.510;11.934;2024-02-04T03:18:51;10.93;;;7.77;;
18532;SDS011;9396;51.510;11.934;2024-02-04T03:21:19;10.63;;;7.27;;
18532;SDS011;9396;51.510;11.934;2024-02-04T03:23:46;11.03;;;7.03;;
18532;SDS011;9396;51.510;11.934;2024-02-04T03:26:15;13.13;;;7.90;;
18532;SDS011;9396;51.510;11.934;2024-02-04T03:28:44;8.80;;;7.20;;
18532;SDS011;9396;51.510;11.934;2024-02-04T03:31:10;11.03;;;7.37;;
18532;SDS011;9396;51.510;11.934;2024-02-04T03:33:38;10.50;;;7.10;;
18532;SDS011;9396;51.510;11.934;2024-02-04T03:36:05;10.93;;;7.77;;
18532;SDS011;9396;51.510;11.934;2024-02-04T03:38:32;11.70;;;7.30;;
18532;SDS011;9396;51.510;11.934;2024-02-04T03:41:00;9.90;;;7.10;;
18532;SDS011;9396;51.510;11.934;2024-02-04T03:43:26;11.00;;;7.50;;
18532;SDS011;9396;51.510;11.934;2024-02-04T03:45:53;20.53;;;7.60;;
18532;SDS011;9396;51.510;11.934;2024-02-04T03:48:19;11.50;;;7.40;;
18532;SDS011;9396;51.510;11.934;2024-02-04T03:50:47;10.47;;;6.47;;
18532;SDS011;9396;51.510;11.934;2024-02-04T03:53:14;7.77;;;6.50;;
18532;SDS011;9396;51.510;11.934;2024-02-04T03:55:41;11.97;;;7.00;;
18532;SDS011;9396;51.510;11.934;2024-02-04T03:58:07;8.60;;;6.43;;
18532;SDS011;9396;51.510;11.934;2024-02-04T04:00:34;8.90;;;6.43;;
18532;SDS011;9396;51.510;11.934;2024-02-04T04:03:01;9.53;;;6.30;;
18532;SDS011;9396;51.510;11.934;2024-02-04T04:05:27;8.50;;;5.87;;
18532;SDS011;9396;51.510;11.934;2024-02-04T04:07:56;10.00;;;6.67;;
18532;SDS011;9396;51.510;11.934;2024-02-04T04:10:22;8.87;;;5.73;;
18532;SDS011;9396;51.510;11.934;2024-02-04T04:12:49;9.13;;;5.73;;
18532;SDS011;9396;51.510;11.934;2024-02-04T04:15:16;10.10;;;5.90;;
18532;SDS011;9396;51.510;11.934;2024-02-04T04:17:43;9.10;;;5.67;;
18532;SDS011;9396;51.510;11.934;2024-02-04T04:20:09;8.47;;;6.03;;
18532;SDS011;9396;51.510;11.934;2024-02-04T04:22:38;8.20;;;6.07;;
18532;SDS011;9396;51.510;11.934;2024-02-04T04:25:07;7.77;;;5.73;;
18532;SDS011;9396;51.510;11.934;2024-02-04T04:27:35;8.77;;;5.97;;
18532;SDS011;9396;51.510;11.934;2024-02-04T04:30:01;9.83;;;5.43;;
18532;SDS011;9396;51.510;11.934;2024-02-04T04:32:28;6.87;;;5.50;;
18532;SDS011;9396;51.510;11.934;2024-02-04T04:34:56;9.57;;;5.60;;
18532;SDS011;9396;51.510;11.934;2024-02-04T04:37:22;8.00;;;5.10;;
18532;SDS011;9396;51.510;11.934;2024-02-04T04:39:49;7.00;;;5.10;;
18532;SDS011;9396;51.510;11.934;2024-02-04T04:42:17;10.10;;;6.77;;
18532;SDS011;9396;51.510;11.934;2024-02-04T04:44:43;12.17;;;6.57;;
18532;SDS011;9396;51.510;11.934;2024-02-04T04:47:09;9.13;;;6.43;;
18532;SDS011;9396;51.510;11.934;2024-02-04T04:49:36;11.03;;;7.10;;
18532;SDS011;9396;51.510;11.934;2024-02-04T04:52:02;10.60;;;6.40;;
18532;SDS011;9396;51.510;11.934;2024-02-04T04:54:29;11.63;;;6.07;;
18532;SDS011;9396;51.510;11.934;2024-02-04T04:56:56;11.30;;;6.67;;
18532;SDS011;9396;51.510;11.934;2024-02-04T04:59:24;10.30;;;7.03;;
18532;SDS011;9396;51.510;11.934;2024-02-04T05:01:50;10.60;;;6.23;;
18532;SDS011;9396;51.510;11.934;2024-02-04T05:04:17;11.03;;;6.67;;
18532;SDS011;9396;51.510;11.934;2024-02-04T05:06:44;9.40;;;6.47;;
18532;SDS011;9396;51.510;11.934;2024-02-04T05:09:11;12.23;;;7.63;;
18532;SDS011;9396;51.510;11.934;2024-02-04T05:11:38;12.27;;;7.03;;
18532;SDS011;9396;51.510;11.934;2024-02-04T05:14:04;11.33;;;6.90;;
18532;SDS011;9396;51.510;11.934;2024-02-04T05:16:32;9.80;;;6.10;;
18532;SDS011;9396;51.510;11.934;2024-02-04T05:19:00;12.07;;;6.67;;
18532;SDS011;9396;51.510;11.934;2024-02-04T05:21:27;11.63;;;6.60;;
18532;SDS011;9396;51.510;11.934;2024-02-04T05:23:54;8.43;;;5.87;;
18532;SDS011;9396;51.510;11.934;2024-02-04T05:26:20;9.93;;;6.47;;
18532;SDS011;9396;51.510;11.934;2024-02-04T05:28:47;11.40;;;6.90;;
18532;SDS011;9396;51.510;11.934;2024-02-04T05:31:14;9.00;;;5.90;;
18532;SDS011;9396;51.510;11.934;2024-02-04T05:33:42;14.20;;;7.43;;
18532;SDS011;9396;51.510;11.934;2024-02-04T05:36:08;8.80;;;6.53;;
18532;SDS011;9396;51.510;11.934;2024-02-04T05:38:35;12.70;;;6.23;;
18532;SDS011;9396;51.510;11.934;2024-02-04T05:41:01;9.33;;;5.57;;
18532;SDS011;9396;51.510;11.934;2024-02-04T05:43:28;7.80;;;5.40;;
18532;SDS011;9396;51.510;11.934;2024-02-04T05:45:54;7.40;;;5.63;;
18532;SDS011;9396;51.510;11.934;2024-02-04T05:48:21;8.13;;;5.50;;
18532;SDS011;9396;51.510;11.934;2024-02-04T05:50:49;9.27;;;6.23;;
18532;SDS011;9396;51.510;11.934;2024-02-04T05:53:16;6.53;;;4.97;;
18532;SDS011;9396;51.510;11.934;2024-02-04T05:55:42;9.57;;;5.27;;
18532;SDS011;9396;51.510;11.934;2024-02-04T05:58:09;9.13;;;5.63;;
18532;SDS011;9396;51.510;11.934;2024-02-04T06:00:38;8.87;;;5.57;;
18532;SDS011;9396;51.510;11.934;2024-02-04T06:03:05;9.83;;;5.97;;
18532;SDS011;9396;51.510;11.934;2024-02-04T06:05:32;10.37;;;5.43;;
18532;SDS011;9396;51.510;11.934;2024-02-04T06:08:00;7.70;;;5.47;;
18532;SDS011;9396;51.510;11.934;2024-02-04T06:10:26;8.67;;;5.80;;
18532;SDS011;9396;51.510;11.934;2024-02-04T06:12:53;7.47;;;5.00;;
18532;SDS011;9396;51.510;11.934;2024-02-04T06:15:19;7.07;;;5.63;;
18532;SDS011;9396;51.510;11.934;2024-02-04T06:17:46;7.27;;;5.37;;
18532;SDS011;9396;51.510;11.934;2024-02-04T06:20:13;7.37;;;5.70;;
18532;SDS011;9396;51.510;11.934;2024-02-04T06:22:39;6.07;;;4.87;;
18532;SDS011;9396;51.510;11.934;2024-02-04T06:25:07;8.03;;;5.47;;
18532;SDS011;9396;51.510;11.934;2024-02-04T06:27:34;5.67;;;4.30;;
18532;SDS011;9396;51.510;11.934;2024-02-04T06:30:01;9.07;;;4.70;;
18532;SDS011;9396;51.510;11.934;2024-02-04T06:32:27;6.70;;;4.77;;
18532;SDS011;9396;51.510;11.934;2024-02-04T06:34:54;7.33;;;4.93;;
18532;SDS011;9396;51.510;11.934;2024-02-04T06:37:21;4.40;;;3.90;;
18532;SDS011;9396;51.510;11.934;2024-02-04T06:39:48;5.97;;;4.20;;
18532;SDS011;9396;51.510;11.934;2024-02-04T06:42:16;4.87;;;4.20;;
18532;SDS011;9396;51.510;11.934;2024-02-04T06:44:43;4.87;;;3.97;;
18532;SDS011;9396;51.510;11.934;2024-02-04T06:47:10;5.83;;;4.00;;
18532;SDS011;9396;51.510;11.934;2024-02-04T06:49:37;5.70;;;4.10;;
18532;SDS011;9396;51.510;11.934;2024-02-04T06:52:04;3.93;;;3.43;;
18532;SDS011;9396;51.510;11.934;2024-02-04T06:54:31;4.23;;;3.67;;
18532;SDS011;9396;51.510;11.934;2024-02-04T06:56:57;4.30;;;3.57;;
18532;SDS011;9396;51.510;11.934;2024-02-04T06:59:25;4.03;;;3.30;;
18532;SDS011;9396;51.510;11.934;2024-02-04T07:01:52;3.73;;;3.03;;
18532;SDS011;9396;51.510;11.934;2024-02-04T07:04:19;3.47;;;3.00;;
18532;SDS011;9396;51.510;11.934;2024-02-04T07:06:46;4.53;;;2.90;;
18532;SDS011;9396;51.510;11.934;2024-02-04T07:09:13;5.57;;;2.67;;
18532;SDS011;9396;51.510;11.934;2024-02-04T07:11:40;2.57;;;2.37;;
18532;SDS011;9396;51.510;11.934;2024-02-04T07:14:06;3.53;;;2.67;;
18532;SDS011;9396;51.510;11.934;2024-02-04T07:16:34;3.03;;;2.60;;
18532;SDS011;9396;51.510;11.934;2024-02-04T07:19:01;3.00;;;2.70;;
18532;SDS011;9396;51.510;11.934;2024-02-04T07:21:28;3.13;;;2.77;;
18532;SDS011;9396;51.510;11.934;2024-02-04T07:23:54;2.80;;;2.60;;
18532;SDS011;9396;51.510;11.934;2024-02-04T07:26:21;4.50;;;2.63;;
18532;SDS011;9396;51.510;11.934;2024-02-04T07:28:47;2.80;;;2.53;;
18532;SDS011;9396;51.510;11.934;2024-02-04T07:31:14;4.23;;;2.70;;
18532;SDS011;9396;51.510;11.934;2024-02-04T07:33:42;2.93;;;2.50;;
18532;SDS011;9396;51.510;11.934;2024-02-04T07:36:10;3.90;;;2.97;;
18532;SDS011;9396;51.510;11.934;2024-02-04T07:38:37;4.83;;;3.20;;
18532;SDS011;9396;51.510;11.934;2024-02-04T07:41:03;4.00;;;3.47;;
18532;SDS011;9396;51.510;11.934;2024-02-04T07:43:30;5.67;;;3.50;;
18532;SDS011;9396;51.510;11.934;2024-02-04T07:45:57;4.47;;;3.67;;
18532;SDS011;9396;51.510;11.934;2024-02-04T07:48:23;4.33;;;3.13;;
18532;SDS011;9396;51.510;11.934;2024-02-04T07:50:51;4.57;;;3.30;;
18532;SDS011;9396;51.510;11.934;2024-02-04T07:53:18;4.30;;;3.33;;
18532;SDS011;9396;51.510;11.934;2024-02-04T07:55:44;6.03;;;3.60;;
18532;SDS011;9396;51.510;11.934;2024-02-04T07:58:11;4.03;;;3.60;;
18532;SDS011;9396;51.510;11.934;2024-02-04T08:00:38;3.97;;;3.53;;
18532;SDS011;9396;51.510;11.934;2024-02-04T08:03:04;4.63;;;3.60;;
18532;SDS011;9396;51.510;11.934;2024-02-04T08:05:31;3.47;;;2.70;;
18532;SDS011;9396;51.510;11.934;2024-02-04T08:08:01;3.30;;;2.90;;
18532;SDS011;9396;51.510;11.934;2024-02-04T08:10:28;2.73;;;2.10;;
18532;SDS011;9396;51.510;11.934;2024-02-04T08:12:55;2.73;;;1.90;;
18532;SDS011;9396;51.510;11.934;2024-02-04T08:15:22;2.40;;;1.90;;
18532;SDS011;9396;51.510;11.934;2024-02-04T08:17:49;1.90;;;1.70;;
18532;SDS011;9396;51.510;11.934;2024-02-04T08:20:17;4.20;;;1.63;;
18532;SDS011;9396;51.510;11.934;2024-02-04T08:22:44;1.67;;;1.57;;
18532;SDS011;9396;51.510;11.934;2024-02-04T08:25:12;2.20;;;1.97;;
18532;SDS011;9396;51.510;11.934;2024-02-04T08:27:38;2.27;;;1.50;;
18532;SDS011;9396;51.510;11.934;2024-02-04T08:30:06;2.13;;;1.83;;
18532;SDS011;9396;51.510;11.934;2024-02-04T08:32:33;1.83;;;1.50;;
18532;SDS011;9396;51.510;11.934;2024-02-04T08:35:00;2.57;;;1.53;;
18532;SDS011;9396;51.510;11.934;2024-02-04T08:37:26;2.73;;;1.60;;
18532;SDS011;9396;51.510;11.934;2024-02-04T08:39:53;1.67;;;1.57;;
18532;SDS011;9396;51.510;11.934;2024-02-04T08:42:21;2.80;;;1.73;;
18532;SDS011;9396;51.510;11.934;2024-02-04T08:44:47;2.03;;;1.70;;
18532;SDS011;9396;51.510;11.934;2024-02-04T08:47:14;1.60;;;1.50;;
18532;SDS011;9396;51.510;11.934;2024-02-04T08:49:42;2.10;;;1.90;;
18532;SDS011;9396;51.510;11.934;2024-02-04T08:52:09;1.90;;;1.53;;
18532;SDS011;9396;51.510;11.934;2024-02-04T08:54:35;2.20;;;1.80;;
18532;SDS011;9396;51.510;11.934;2024-02-04T08:57:02;2.13;;;1.80;;
18532;SDS011;9396;51.510;11.934;2024-02-04T08:59:30;2.57;;;1.90;;
18532;SDS011;9396;51.510;11.934;2024-02-04T09:01:57;3.50;;;2.23;;
18532;SDS011;9396;51.510;11.934;2024-02-04T09:04:23;3.03;;;1.93;;
18532;SDS011;9396;51.510;11.934;2024-02-04T09:06:50;2.97;;;2.00;;
18532;SDS011;9396;51.510;11.934;2024-02-04T09:09:16;3.07;;;2.10;;
18532;SDS011;9396;51.510;11.934;2024-02-04T09:11:43;2.00;;;1.80;;
18532;SDS011;9396;51.510;11.934;2024-02-04T09:14:09;2.10;;;1.70;;
18532;SDS011;9396;51.510;11.934;2024-02-04T09:16:38;2.40;;;2.20;;
18532;SDS011;9396;51.510;11.934;2024-02-04T09:19:05;3.33;;;2.13;;
18532;SDS011;9396;51.510;11.934;2024-02-04T09:21:31;2.47;;;2.23;;
18532;SDS011;9396;51.510;11.934;2024-02-04T09:23:58;2.50;;;1.93;;
18532;SDS011;9396;51.510;11.934;2024-02-04T09:26:24;2.37;;;2.03;;
18532;SDS011;9396;51.510;11.934;2024-02-04T09:28:51;3.20;;;2.07;;
18532;SDS011;9396;51.510;11.934;2024-02-04T09:31:18;3.13;;;1.93;;
18532;SDS011;9396;51.510;11.934;2024-02-04T09:33:46;4.23;;;2.37;;
18532;SDS011;9396;51.510;11.934;2024-02-04T09:36:12;3.10;;;2.30;;
18532;SDS011;9396;51.510;11.934;2024-02-04T09:38:39;2.70;;;2.37;;
18532;SDS011;9396;51.510;11.934;2024-02-04T09:41:06;2.73;;;2.20;;
18532;SDS011;9396;51.510;11.934;2024-02-04T09:43:33;3.90;;;2.50;;
18532;SDS011;9396;51.510;11.934;2024-02-04T09:46:02;3.40;;;2.00;;
18532;SDS011;9396;51.510;11.934;2024-02-04T09:48:30;2.90;;;2.10;;
18532;SDS011;9396;51.510;11.934;2024-02-04T09:51:00;3.13;;;2.37;;
18532;SDS011;9396;51.510;11.934;2024-02-04T09:53:30;6.13;;;2.33;;
18532;SDS011;9396;51.510;11.934;2024-02-04T09:55:59;2.70;;;2.00;;
18532;SDS011;9396;51.510;11.934;2024-02-04T09:58:28;2.87;;;2.10;;
18532;SDS011;9396;51.510;11.934;2024-02-04T10:00:55;2.83;;;2.17;;
18532;SDS011;9396;51.510;11.934;2024-02-04T10:03:22;3.33;;;2.40;;
18532;SDS011;9396;51.510;11.934;2024-02-04T10:05:49;6.33;;;2.67;;
18532;SDS011;9396;51.510;11.934;2024-02-04T10:08:17;3.20;;;2.37;;
18532;SDS011;9396;51.510;11.934;2024-02-04T10:10:44;2.63;;;2.30;;
18532;SDS011;9396;51.510;11.934;2024-02-04T10:13:11;2.83;;;2.10;;
18532;SDS011;9396;51.510;11.934;2024-02-04T10:15:37;2.93;;;2.70;;
18532;SDS011;9396;51.510;11.934;2024-02-04T10:18:04;3.67;;;2.63;;
18532;SDS011;9396;51.510;11.934;2024-02-04T10:20:32;2.80;;;2.50;;
18532;SDS011;9396;51.510;11.934;2024-02-04T10:22:59;2.57;;;2.37;;
18532;SDS011;9396;51.510;11.934;2024-02-04T10:25:27;4.47;;;2.60;;
18532;SDS011;9396;51.510;11.934;2024-02-04T10:27:53;3.33;;;2.73;;
18532;SDS011;9396;51.510;11.934;2024-02-04T10:30:20;3.03;;;2.73;;
18532;SDS011;9396;51.510;11.934;2024-02-04T10:32:47;3.63;;;3.10;;
18532;SDS011;9396;51.510;11.934;2024-02-04T10:35:16;3.10;;;2.80;;
18532;SDS011;9396;51.510;11.934;2024-02-04T10:37:44;5.60;;;3.50;;
18532;SDS011;9396;51.510;11.934;2024-02-04T10:40:11;5.20;;;2.80;;
18532;SDS011;9396;51.510;11.934;2024-02-04T10:42:39;5.13;;;3.40;;
18532;SDS011;9396;51.510;11.934;2024-02-04T10:45:09;4.70;;;3.27;;
18532;SDS011;9396;51.510;11.934;2024-02-04T10:47:36;6.73;;;3.60;;
18532;SDS011;9396;51.510;11.934;2024-02-04T10:50:04;5.33;;;4.23;;
18532;SDS011;9396;51.510;11.934;2024-02-04T10:52:33;6.07;;;3.83;;
18532;SDS011;9396;51.510;11.934;2024-02-04T10:55:04;4.43;;;3.67;;
18532;SDS011;9396;51.510;11.934;2024-02-04T10:57:33;4.73;;;3.97;;
18532;SDS011;9396;51.510;11.934;2024-02-04T11:00:03;5.13;;;4.23;;
18532;SDS011;9396;51.510;11.934;2024-02-04T11:02:34;10.10;;;5.40;;
18532;SDS011;9396;51.510;11.934;2024-02-04T11:05:02;7.57;;;4.67;;
18532;SDS011;9396;51.510;11.934;2024-02-04T11:07:29;7.53;;;4.50;;
18532;SDS011;9396;51.510;11.934;2024-02-04T11:09:58;5.13;;;4.63;;
18532;SDS011;9396;51.510;11.934;2024-02-04T11:12:25;5.50;;;4.90;;
18532;SDS011;9396;51.510;11.934;2024-02-04T11:14:54;6.17;;;4.60;;
18532;SDS011;9396;51.510;11.934;2024-02-04T11:17:32;8.43;;;5.17;;
18532;SDS011;9396;51.510;11.934;2024-02-04T11:20:16;5.87;;;4.60;;
18532;SDS011;9396;51.510;11.934;2024-02-04T11:23:01;6.67;;;5.73;;
18532;SDS011;9396;51.510;11.934;2024-02-04T11:25:42;6.90;;;4.57;;
18532;SDS011;9396;51.510;11.934;2024-02-04T11:28:11;6.60;;;5.20;;
18532;SDS011;9396;51.510;11.934;2024-02-04T11:30:38;6.23;;;4.60;;
18532;SDS011;9396;51.510;11.934;2024-02-04T11:33:07;5.90;;;4.70;;
18532;SDS011;9396;51.510;11.934;2024-02-04T11:35:33;6.80;;;4.93;;
18532;SDS011;9396;51.510;11.934;2024-02-04T11:38:00;5.07;;;4.57;;
18532;SDS011;9396;51.510;11.934;2024-02-04T11:40:33;4.83;;;4.20;;
18532;SDS011;9396;51.510;11.934;2024-02-04T11:43:04;5.77;;;4.30;;
18532;SDS011;9396;51.510;11.934;2024-02-04T11:45:31;6.93;;;4.40;;
18532;SDS011;9396;51.510;11.934;2024-02-04T11:48:01;5.60;;;4.33;;
18532;SDS011;9396;51.510;11.934;2024-02-04T11:50:30;5.30;;;4.80;;
18532;SDS011;9396;51.510;11.934;2024-02-04T11:53:07;5.97;;;4.27;;
18532;SDS011;9396;51.510;11.934;2024-02-04T11:55:35;5.00;;;3.47;;
18532;SDS011;9396;51.510;11.934;2024-02-04T11:58:03;3.90;;;3.40;;
18532;SDS011;9396;51.510;11.934;2024-02-04T12:00:31;5.50;;;3.27;;
18532;SDS011;9396;51.510;11.934;2024-02-04T12:03:01;6.43;;;3.47;;
18532;SDS011;9396;51.510;11.934;2024-02-04T12:05:30;4.40;;;3.60;;
18532;SDS011;9396;51.510;11.934;2024-02-04T12:07:58;5.37;;;3.57;;
18532;SDS011;9396;51.510;11.934;2024-02-04T12:10:26;5.37;;;4.13;;
18532;SDS011;9396;51.510;11.934;2024-02-04T12:12:53;6.47;;;4.03;;
18532;SDS011;9396;51.510;11.934;2024-02-04T12:15:20;5.87;;;3.83;;
18532;SDS011;9396;51.510;11.934;2024-02-04T12:17:46;4.73;;;3.80;;
18532;SDS011;9396;51.510;11.934;2024-02-04T12:20:13;4.27;;;3.60;;
18532;SDS011;9396;51.510;11.934;2024-02-04T12:22:41;3.87;;;3.20;;
18532;SDS011;9396;51.510;11.934;2024-02-04T12:25:08;3.20;;;2.30;;
18532;SDS011;9396;51.510;11.934;2024-02-04T12:27:34;3.40;;;1.90;;
18532;SDS011;9396;51.510;11.934;2024-02-04T12:30:02;1.60;;;1.20;;
18532;SDS011;9396;51.510;11.934;2024-02-04T12:32:30;3.20;;;0.90;;
18532;SDS011;9396;51.510;11.934;2024-02-04T12:34:57;3.23;;;1.00;;
18532;SDS011;9396;51.510;11.934;2024-02-04T12:37:23;2.30;;;1.30;;
18532;SDS011;9396;51.510;11.934;2024-02-04T12:39:53;1.87;;;1.20;;
18532;SDS011;9396;51.510;11.934;2024-02-04T12:42:19;1.30;;;1.10;;
18532;SDS011;9396;51.510;11.934;2024-02-04T12:44:46;2.60;;;1.10;;
18532;SDS011;9396;51.510;11.934;2024-02-04T12:47:14;1.60;;;1.30;;
18532;SDS011;9396;51.510;11.934;2024-02-04T12:49:44;1.40;;;1.10;;
18532;SDS011;9396;51.510;11.934;2024-02-04T12:52:11;2.70;;;1.70;;
18532;SDS011;9396;51.510;11.934;2024-02-04T12:54:41;2.43;;;1.67;;
18532;SDS011;9396;51.510;11.934;2024-02-04T12:57:10;2.17;;;1.23;;
18532;SDS011;9396;51.510;11.934;2024-02-04T12:59:37;2.87;;;1.20;;
18532;SDS011;9396;51.510;11.934;2024-02-04T13:02:04;3.20;;;1.27;;
18532;SDS011;9396;51.510;11.934;2024-02-04T13:04:35;2.27;;;1.20;;
18532;SDS011;9396;51.510;11.934;2024-02-04T13:07:01;5.03;;;1.60;;
18532;SDS011;9396;51.510;11.934;2024-02-04T13:09:32;2.93;;;1.23;;
18532;SDS011;9396;51.510;11.934;2024-02-04T13:12:02;2.37;;;1.37;;
18532;SDS011;9396;51.510;11.934;2024-02-04T13:14:30;3.50;;;1.43;;
18532;SDS011;9396;51.510;11.934;2024-02-04T13:16:57;2.70;;;1.33;;
18532;SDS011;9396;51.510;11.934;2024-02-04T13:19:24;3.63;;;1.10;;
18532;SDS011;9396;51.510;11.934;2024-02-04T13:21:50;3.40;;;1.10;;
18532;SDS011;9396;51.510;11.934;2024-02-04T13:24:17;2.03;;;1.00;;
18532;SDS011;9396;51.510;11.934;2024-02-04T13:26:43;2.20;;;0.87;;
18532;SDS011;9396;51.510;11.934;2024-02-04T13:29:10;2.03;;;1.27;;
18532;SDS011;9396;51.510;11.934;2024-02-04T13:31:39;1.63;;;0.93;;
18532;SDS011;9396;51.510;11.934;2024-02-04T13:34:06;2.40;;;1.10;;
18532;SDS011;9396;51.510;11.934;2024-02-04T13:36:33;3.00;;;1.10;;
18532;SDS011;9396;51.510;11.934;2024-02-04T13:38:59;3.10;;;1.00;;
18532;SDS011;9396;51.510;11.934;2024-02-04T13:41:26;3.47;;;0.90;;
18532;SDS011;9396;51.510;11.934;2024-02-04T13:43:53;2.83;;;1.10;;
18532;SDS011;9396;51.510;11.934;2024-02-04T13:46:19;1.70;;;0.90;;
18532;SDS011;9396;51.510;11.934;2024-02-04T13:48:47;1.10;;;1.00;;
18532;SDS011;9396;51.510;11.934;2024-02-04T13:51:14;1.77;;;0.97;;
18532;SDS011;9396;51.510;11.934;2024-02-04T13:53:40;2.07;;;0.70;;
18532;SDS011;9396;51.510;11.934;2024-02-04T13:56:07;1.53;;;1.03;;
18532;SDS011;9396;51.510;11.934;2024-02-04T13:58:34;1.00;;;0.90;;
18532;SDS011;9396;51.510;11.934;2024-02-04T14:01:00;1.23;;;1.00;;
18532;SDS011;9396;51.510;11.934;2024-02-04T14:03:28;3.50;;;1.10;;
18532;SDS011;9396;51.510;11.934;2024-02-04T14:05:56;3.00;;;1.10;;
18532;SDS011;9396;51.510;11.934;2024-02-04T14:08:22;1.80;;;0.87;;
18532;SDS011;9396;51.510;11.934;2024-02-04T14:10:49;2.13;;;0.93;;
18532;SDS011;9396;51.510;11.934;2024-02-04T14:13:16;1.40;;;0.90;;
18532;SDS011;9396;51.510;11.934;2024-02-04T14:15:43;2.40;;;0.90;;
18532;SDS011;9396;51.510;11.934;2024-02-04T14:18:10;1.30;;;1.00;;
18532;SDS011;9396;51.510;11.934;2024-02-04T14:20:37;1.00;;;0.90;;
18532;SDS011;9396;51.510;11.934;2024-02-04T14:23:05;3.27;;;1.13;;
18532;SDS011;9396;51.510;11.934;2024-02-04T14:25:31;1.87;;;1.00;;
18532;SDS011;9396;51.510;11.934;2024-02-04T14:27:58;2.27;;;1.23;;
18532;SDS011;9396;51.510;11.934;2024-02-04T14:30:24;1.53;;;1.00;;
18532;SDS011;9396;51.510;11.934;2024-02-04T14:32:51;2.00;;;1.30;;
18532;SDS011;9396;51.510;11.934;2024-02-04T14:35:18;2.37;;;1.00;;
18532;SDS011;9396;51.510;11.934;2024-02-04T14:37:45;3.73;;;1.00;;
18532;SDS011;9396;51.510;11.934;2024-02-04T14:40:14;1.93;;;0.87;;
18532;SDS011;9396;51.510;11.934;2024-02-04T14:42:40;3.53;;;0.90;;
18532;SDS011;9396;51.510;11.934;2024-02-04T14:45:07;2.40;;;1.00;;
18532;SDS011;9396;51.510;11.934;2024-02-04T14:47:35;1.30;;;0.80;;